Time;durP1;ratioP1;P1;durP2;ratioP2;P2;SDS_P1;SDS_P2;PMS_P1;PMS_P2;Temp;Humidity;BMP_temperature;BMP_pressure;BME280_temperature;BME280_humidity;BME280_pressure;Samples;Min_cycle;Max_cycle;Signal;HPM_P1;HPM_P2
2023/06/19 00:01:00;;;;;;;7.65;5.40;;;;;;;25.27;40.33;99282.59;1086579;47;20088;-83
2023/06/19 00:02:01;;;;;;;5.65;4.47;;;;;;;25.26;40.36;99285.59;1086507;47;20026;-84
2023/06/19 00:03:05;;;;;;;6.30;4.93;;;;;;;25.27;40.08;99288.06;1086888;54;20030;-83
2023/06/19 00:04:06;;;;;;;6.35;4.82;;;;;;;25.21;40.53;99289.13;1086565;47;20022;-83
2023/06/19 00:05:11;;;;;;;6.32;4.97;;;;;;;25.19;40.43;99294.03;1086638;54;20102;-83
2023/06/19 00:06:17;;;;;;;6.28;5.13;;;;;;;25.11;40.54;99289.84;1086607;47;20026;-84
2023/06/19 00:07:21;;;;;;;7.63;5.50;;;;;;;25.07;40.68;99294.19;1086826;47;20082;-84
2023/06/19 00:08:25;;;;;;;6.47;5.07;;;;;;;25.08;40.61;99287.63;1086629;54;20038;-84
2023/06/19 00:09:26;;;;;;;8.07;5.65;;;;;;;25.04;40.82;99292.78;1086653;54;20034;-85
2023/06/19 00:10:30;;;;;;;6.88;5.47;;;;;;;25.04;40.52;99284.59;1086713;54;20030;-84
2023/06/19 00:11:31;;;;;;;6.38;5.10;;;;;;;25.03;40.45;99282.94;1086656;47;20054;-86
2023/06/19 00:12:35;;;;;;;6.38;5.15;;;;;;;25.04;40.78;99290.06;1088588;39;21052;-87
2023/06/19 00:13:36;;;;;;;6.45;5.00;;;;;;;25.04;40.44;99284.59;1086657;47;20034;-84
2023/06/19 00:14:39;;;;;;;6.28;4.72;;;;;;;25.04;40.52;99287.31;1086535;47;20026;-84
2023/06/19 00:15:40;;;;;;;6.38;5.45;;;;;;;25.08;40.35;99284.88;1086559;47;20023;-83
2023/06/19 00:16:44;;;;;;;6.93;5.15;;;;;;;25.08;40.53;99285.72;1086578;54;20118;-84
2023/06/19 00:17:45;;;;;;;6.88;5.30;;;;;;;25.11;40.33;99281.66;1086583;47;20098;-83
2023/06/19 00:18:49;;;;;;;6.22;4.75;;;;;;;25.13;40.39;99278.66;1086507;47;20038;-83
2023/06/19 00:19:50;;;;;;;6.07;4.85;;;;;;;25.17;40.35;99274.31;1086540;54;21228;-84
2023/06/19 00:20:55;;;;;;;7.10;4.90;;;;;;;25.17;40.19;99277.88;1086680;47;20027;-84
2023/06/19 00:22:00;;;;;;;6.75;5.30;;;;;;;25.19;40.45;99275.69;1086532;47;20102;-83
2023/06/19 00:23:03;;;;;;;7.50;4.78;;;;;;;25.19;40.22;99274.88;1086550;54;20176;-83
2023/06/19 00:24:05;;;;;;;6.30;4.88;;;;;;;25.21;40.27;99279.00;1086584;47;20055;-85
2023/06/19 00:25:10;;;;;;;5.68;4.57;;;;;;;25.25;40.29;99278.50;1086574;47;20030;-84
2023/06/19 00:26:14;;;;;;;6.53;4.97;;;;;;;25.27;40.11;99276.31;1086599;54;20026;-86
2023/06/19 00:27:18;;;;;;;6.18;4.82;;;;;;;25.28;40.10;99276.06;1088007;39;20807;-85
2023/06/19 00:28:21;;;;;;;6.40;5.00;;;;;;;25.30;40.31;99284.81;1086879;54;20061;-86
2023/06/19 00:29:27;;;;;;;5.57;4.35;;;;;;;25.29;40.18;99280.44;1087078;54;20034;-86
2023/06/19 00:30:32;;;;;;;7.13;4.70;;;;;;;25.31;40.33;99288.38;1087018;54;20034;-86
2023/06/19 00:31:37;;;;;;;7.32;4.78;;;;;;;25.30;40.19;99282.09;1087101;54;20034;-85
2023/06/19 00:32:46;;;;;;;6.10;4.55;;;;;;;25.32;40.14;99285.38;1086949;54;20031;-85
2023/06/19 00:33:50;;;;;;;6.22;4.65;;;;;;;25.31;40.09;99283.75;1086774;46;20059;-85
2023/06/19 00:34:52;;;;;;;6.63;5.13;;;;;;;25.26;40.25;99286.41;1086959;47;20050;-84
2023/06/19 00:35:56;;;;;;;6.63;5.45;;;;;;;25.23;40.34;99286.94;1086937;54;20034;-84
2023/06/19 00:37:00;;;;;;;6.45;5.32;;;;;;;25.15;40.62;99284.69;1086906;47;20027;-85
2023/06/19 00:38:04;;;;;;;6.32;5.18;;;;;;;25.12;40.49;99285.22;1086835;47;20038;-85
2023/06/19 00:39:06;;;;;;;8.20;5.38;;;;;;;25.05;40.69;99286.22;1086998;54;20038;-84
2023/06/19 00:40:17;;;;;;;5.70;4.82;;;;;;;25.05;41.17;99285.44;1087007;47;20027;-84
2023/06/19 00:41:18;;;;;;;6.57;5.57;;;;;;;25.00;41.10;99277.16;1086973;46;20023;-85
2023/06/19 00:42:22;;;;;;;7.30;5.68;;;;;;;24.97;41.10;99283.97;1086819;46;20030;-85
2023/06/19 00:43:23;;;;;;;6.63;5.60;;;;;;;24.87;41.57;99286.59;1087010;47;20026;-86
2023/06/19 00:44:27;;;;;;;7.00;5.22;;;;;;;24.84;41.96;99285.22;1086828;47;20026;-85
2023/06/19 00:45:30;;;;;;;7.03;5.75;;;;;;;24.81;41.79;99284.91;1087019;47;20026;-85
2023/06/19 00:46:34;;;;;;;8.25;6.05;;;;;;;24.76;42.20;99288.41;1088602;39;20862;-84
2023/06/19 00:47:35;;;;;;;6.78;5.50;;;;;;;24.70;42.43;99298.47;1086965;54;20027;-84
2023/06/19 00:48:39;;;;;;;7.38;5.68;;;;;;;24.70;42.49;99298.47;1087879;39;21096;-85
2023/06/19 00:49:40;;;;;;;7.20;5.68;;;;;;;24.69;42.33;99294.09;1086929;47;20053;-84
2023/06/19 00:50:43;;;;;;;6.15;5.10;;;;;;;24.64;42.68;99296.75;1087051;47;20027;-87
2023/06/19 00:51:45;;;;;;;7.35;6.00;;;;;;;24.63;42.80;99300.53;1087084;54;20037;-84
2023/06/19 00:52:54;;;;;;;6.28;5.50;;;;;;;24.62;42.71;99307.09;1086971;47;20022;-85
2023/06/19 00:53:55;;;;;;;8.77;6.32;;;;;;;24.55;42.91;99303.72;1089086;39;20903;-86
2023/06/19 00:54:59;;;;;;;8.43;5.70;;;;;;;24.49;43.07;99311.03;1087162;46;20034;-86
2023/06/19 00:56:03;;;;;;;7.97;7.05;;;;;;;24.42;43.30;99311.22;1087037;46;20094;-84
2023/06/19 00:57:08;;;;;;;7.60;6.20;;;;;;;24.36;43.03;99312.25;1086996;54;20038;-83
2023/06/19 00:58:10;;;;;;;6.75;5.82;;;;;;;24.38;43.36;99317.44;1087377;46;20029;-83
2023/06/19 00:59:18;;;;;;;7.95;6.25;;;;;;;24.34;43.42;99308.09;1086863;47;21010;-83
2023/06/19 01:00:19;;;;;;;7.38;5.60;;;;;;;24.31;43.15;99320.38;1087133;47;20053;-83
2023/06/19 01:01:24;;;;;;;7.72;6.38;;;;;;;24.29;43.15;99317.91;1086968;47;20074;-85
2023/06/19 01:02:25;;;;;;;7.63;5.85;;;;;;;24.25;43.51;99326.84;1086902;47;20410;-84
2023/06/19 01:03:29;;;;;;;7.53;5.88;;;;;;;24.21;43.43;99320.22;1086964;47;20026;-84
2023/06/19 01:04:30;;;;;;;8.80;6.82;;;;;;;24.16;43.97;99325.63;1086892;46;20027;-84
2023/06/19 01:05:34;;;;;;;7.70;6.40;;;;;;;24.07;44.10;99326.06;1086812;47;20030;-83
2023/06/19 01:06:42;;;;;;;8.25;6.53;;;;;;;24.06;44.03;99335.34;1086832;47;20027;-84
2023/06/19 01:07:54;;;;;;;8.25;6.00;;;;;;;24.03;44.19;99335.81;1087046;46;20034;-86
2023/06/19 01:09:04;;;;;;;8.40;6.60;;;;;;;23.92;44.63;99347.63;1087038;54;20039;-84
2023/06/19 01:10:12;;;;;;;7.25;5.95;;;;;;;23.91;44.43;99346.81;1086773;47;20061;-85
2023/06/19 01:11:23;;;;;;;7.72;6.43;;;;;;;23.96;44.25;99351.56;1087010;54;20026;-84
2023/06/19 01:12:30;;;;;;;8.20;6.32;;;;;;;23.77;44.70;99359.97;1086899;46;20023;-86
2023/06/19 01:13:42;;;;;;;8.25;6.63;;;;;;;23.73;44.68;99363.47;1088311;39;21047;-85
2023/06/19 01:14:51;;;;;;;7.60;6.80;;;;;;;23.73;44.76;99360.72;1086961;54;20034;-84
2023/06/19 01:15:57;;;;;;;10.98;6.70;;;;;;;23.75;44.77;99356.66;1086930;47;20036;-86
2023/06/19 01:16:59;;;;;;;7.20;6.15;;;;;;;23.69;44.57;99374.03;1086694;47;20023;-86
2023/06/19 01:18:04;;;;;;;7.10;6.38;;;;;;;23.71;44.48;99365.59;1087794;39;20374;-86
2023/06/19 01:19:10;;;;;;;7.97;6.53;;;;;;;23.73;44.66;99377.09;1087005;46;20126;-82
2023/06/19 01:20:14;;;;;;;8.35;6.80;;;;;;;23.72;44.53;99378.97;1087844;39;20322;-83
2023/06/19 01:21:17;;;;;;;7.95;6.47;;;;;;;23.74;44.24;99374.13;1086809;47;20022;-83
2023/06/19 01:22:31;;;;;;;7.90;6.20;;;;;;;23.70;44.49;99381.16;1086912;54;20035;-84
2023/06/19 01:23:35;;;;;;;9.05;7.10;;;;;;;23.65;44.44;99372.88;1086909;47;20053;-85
2023/06/19 01:24:39;;;;;;;8.10;6.35;;;;;;;23.59;44.58;99379.31;1087006;47;20037;-84
2023/06/19 01:25:40;;;;;;;8.48;6.97;;;;;;;23.67;44.19;99381.63;1087119;54;20418;-83
2023/06/19 01:26:45;;;;;;;9.48;6.70;;;;;;;23.69;44.14;99382.22;1087011;54;20038;-85
2023/06/19 01:27:47;;;;;;;8.48;5.97;;;;;;;23.68;44.44;99386.03;1086908;46;20022;-85
2023/06/19 01:28:51;;;;;;;7.05;6.15;;;;;;;23.73;43.83;99390.75;1086990;54;20052;-84
2023/06/19 01:29:53;;;;;;;9.70;6.18;;;;;;;23.75;44.22;99386.69;1086860;47;20032;-85
2023/06/19 01:31:01;;;;;;;7.57;6.10;;;;;;;23.72;44.33;99386.34;1087078;46;20094;-84
2023/06/19 01:32:10;;;;;;;8.05;6.60;;;;;;;23.73;44.11;99391.56;1086868;47;20103;-84
2023/06/19 01:33:20;;;;;;;8.07;6.50;;;;;;;23.68;44.24;99386.03;1086897;47;20061;-85
2023/06/19 01:34:27;;;;;;;8.25;6.72;;;;;;;23.66;44.13;99386.25;1086969;46;20034;-84
2023/06/19 01:35:34;;;;;;;9.18;6.25;;;;;;;23.74;43.94;99393.22;1086886;47;20078;-82
2023/06/19 01:36:36;;;;;;;6.35;5.55;;;;;;;23.76;44.00;99388.34;1086881;47;20026;-85
2023/06/19 01:37:44;;;;;;;7.13;6.05;;;;;;;23.68;44.38;99389.56;1086767;47;20030;-84
2023/06/19 01:38:48;;;;;;;7.68;6.00;;;;;;;23.73;44.14;99388.00;1087091;54;20023;-85
2023/06/19 01:39:52;;;;;;;7.07;5.38;;;;;;;23.75;43.72;99386.69;1086581;54;21138;-84
2023/06/19 01:40:55;;;;;;;6.97;5.45;;;;;;;23.76;44.07;99387.50;1086931;47;20026;-84
2023/06/19 01:42:00;;;;;;;8.38;5.70;;;;;;;23.72;44.09;99397.28;1087013;46;20107;-85
2023/06/19 01:43:02;;;;;;;7.18;5.07;;;;;;;23.78;44.28;99388.94;1086857;47;20022;-84
2023/06/19 01:44:08;;;;;;;7.95;5.22;;;;;;;23.80;44.14;99397.69;1086895;54;21856;-84
2023/06/19 01:45:09;;;;;;;12.35;5.18;;;;;;;23.71;44.68;99390.16;1086939;54;20030;-84
2023/06/19 01:46:13;;;;;;;10.07;4.70;;;;;;;23.78;44.75;99394.38;1086807;47;20042;-83
2023/06/19 01:47:19;;;;;;;6.43;4.63;;;;;;;23.80;44.39;99392.25;1087657;39;20789;-85
2023/06/19 01:48:23;;;;;;;6.05;4.10;;;;;;;23.84;44.84;99403.47;1086920;54;20034;-84
2023/06/19 01:49:24;;;;;;;5.75;4.30;;;;;;;23.95;44.56;99382.66;1087094;46;20027;-85
2023/06/19 01:50:28;;;;;;;6.45;3.92;;;;;;;24.05;44.44;99392.88;1086842;54;20053;-83
2023/06/19 01:51:35;;;;;;;6.88;4.40;;;;;;;23.94;44.77;99391.88;1086820;47;20023;-86
2023/06/19 01:52:53;;;;;;;6.72;4.03;;;;;;;23.93;45.09;99392.97;1086994;47;20027;-85
2023/06/19 01:53:57;;;;;;;5.43;3.92;;;;;;;23.89;45.15;99389.91;1086816;54;20027;-86
2023/06/19 01:55:02;;;;;;;7.85;4.07;;;;;;;23.87;45.22;99386.59;1086891;54;20099;-82
2023/06/19 01:56:04;;;;;;;5.50;4.10;;;;;;;23.84;45.31;99396.09;1086894;46;20030;-86
2023/06/19 01:57:08;;;;;;;5.07;3.55;;;;;;;24.00;44.70;99393.63;1086798;54;20031;-84
2023/06/19 01:58:09;;;;;;;7.70;3.35;;;;;;;24.11;44.55;99395.44;1086882;46;20027;-82
2023/06/19 01:59:13;;;;;;;8.32;4.30;;;;;;;24.03;44.97;99389.59;1086796;47;20026;-83
2023/06/19 02:00:14;;;;;;;6.60;3.50;;;;;;;23.94;45.30;99386.44;1086851;46;20030;-85
2023/06/19 02:01:19;;;;;;;5.68;3.33;;;;;;;23.99;45.12;99392.00;1086818;47;20094;-85
2023/06/19 02:02:20;;;;;;;4.75;3.13;;;;;;;23.99;45.04;99394.75;1086828;47;20111;-84
2023/06/19 02:03:27;;;;;;;6.20;3.00;;;;;;;23.99;45.40;99394.75;1086947;47;20101;-84
2023/06/19 02:05:34;;;;;;;5.50;3.03;;;;;;;24.19;44.84;99393.38;1087426;54;20010;-84
2023/06/19 02:06:36;;;;;;;4.57;2.95;;;;;;;24.09;45.12;99396.78;1086944;47;20098;-82
2023/06/19 02:07:39;;;;;;;4.72;2.80;;;;;;;24.14;45.27;99397.69;1086672;47;20086;-80
2023/06/19 02:08:43;;;;;;;4.00;2.63;;;;;;;24.16;45.39;99400.16;1086986;46;20047;-82
2023/06/19 02:09:48;;;;;;;5.28;3.10;;;;;;;24.24;45.20;99401.66;1088589;31;20746;-81
2023/06/19 02:10:50;;;;;;;4.63;2.38;;;;;;;24.21;45.10;99391.22;1086883;47;20036;-82
2023/06/19 02:11:54;;;;;;;4.45;2.85;;;;;;;24.16;45.19;99397.44;1086757;47;20164;-84
2023/06/19 02:12:55;;;;;;;6.13;2.40;;;;;;;24.14;45.24;99396.84;1086824;54;20026;-81
2023/06/19 02:13:58;;;;;;;4.28;2.60;;;;;;;24.09;45.37;99400.31;1086815;47;20857;-82
2023/06/19 02:15:00;;;;;;;4.13;2.30;;;;;;;23.93;46.36;99392.97;1086952;46;20022;-82
2023/06/19 02:16:03;;;;;;;4.18;2.55;;;;;;;23.99;46.26;99392.81;1086865;47;20058;-80
2023/06/19 02:17:05;;;;;;;5.22;2.67;;;;;;;23.90;46.45;99393.47;1086603;47;20920;-81
2023/06/19 02:18:09;;;;;;;4.78;2.45;;;;;;;23.83;46.59;99393.63;1086718;47;20126;-82
2023/06/19 02:19:10;;;;;;;6.82;2.38;;;;;;;23.71;47.13;99399.16;1086668;54;20030;-82
2023/06/19 02:20:16;;;;;;;6.32;3.38;;;;;;;23.77;47.26;99402.78;1086739;47;20033;-82
2023/06/19 02:21:17;;;;;;;5.13;2.60;;;;;;;23.80;46.84;99397.69;1086811;47;20049;-79
2023/06/19 02:22:21;;;;;;;5.82;2.47;;;;;;;23.94;46.77;99400.94;1086611;47;20034;-78
2023/06/19 02:23:22;;;;;;;5.32;2.33;;;;;;;23.89;46.97;99402.72;1086729;47;20022;-80
2023/06/19 02:24:28;;;;;;;5.05;2.13;;;;;;;23.92;46.92;99388.56;1086811;54;20078;-83
2023/06/19 02:25:30;;;;;;;6.55;2.78;;;;;;;23.77;47.19;99398.19;1086861;47;20052;-82
2023/06/19 02:26:33;;;;;;;4.00;2.45;;;;;;;23.86;47.18;99397.75;1086920;54;20061;-81
2023/06/19 02:27:34;;;;;;;3.70;2.00;;;;;;;23.84;47.10;99398.03;1089814;39;21041;-82
2023/06/19 02:28:38;;;;;;;4.70;1.98;;;;;;;23.83;47.07;99399.91;1086805;47;20057;-81
2023/06/19 02:29:40;;;;;;;3.40;1.92;;;;;;;23.96;47.09;99395.22;1086872;54;20101;-82
2023/06/19 02:30:43;;;;;;;3.75;2.10;;;;;;;23.89;47.00;99403.56;1086794;47;20038;-82
2023/06/19 02:31:45;;;;;;;6.07;2.22;;;;;;;23.76;47.60;99401.97;1086865;46;20953;-81
2023/06/19 02:32:49;;;;;;;4.57;1.90;;;;;;;23.78;47.46;99399.84;1086688;54;20034;-83
2023/06/19 02:33:51;;;;;;;3.80;1.80;;;;;;;23.83;47.62;99397.19;1086866;46;20188;-80
2023/06/19 02:34:57;;;;;;;3.40;1.88;;;;;;;23.96;47.25;99400.69;1086799;54;20030;-80
2023/06/19 02:36:00;;;;;;;3.90;2.05;;;;;;;23.96;46.78;99395.22;1086710;47;20069;-80
2023/06/19 02:37:03;;;;;;;3.58;1.90;;;;;;;23.92;47.54;99404.94;1086540;47;20086;-81
2023/06/19 02:38:04;;;;;;;4.93;1.90;;;;;;;23.82;47.48;99392.78;1086537;54;20035;-79
2023/06/19 02:39:12;;;;;;;4.00;2.25;;;;;;;23.89;47.39;99394.53;1086670;46;20026;-80
2023/06/19 02:40:16;;;;;;;4.63;2.05;;;;;;;23.87;47.80;99385.78;1086623;54;20034;-81
2023/06/19 02:41:19;;;;;;;3.38;1.90;;;;;;;23.83;47.70;99394.44;1087546;39;20868;-79
2023/06/19 02:42:22;;;;;;;3.65;1.98;;;;;;;23.85;47.50;99388.75;1086295;46;20065;-78
2023/06/19 02:43:26;;;;;;;3.25;1.70;;;;;;;23.92;47.55;99388.56;1086582;54;20041;-78
2023/06/19 02:44:27;;;;;;;3.30;1.70;;;;;;;23.89;47.43;99384.44;1086751;46;20053;-78
2023/06/19 02:45:31;;;;;;;4.05;1.92;;;;;;;23.90;47.58;99388.84;1086761;54;20035;-80
2023/06/19 02:46:32;;;;;;;3.75;2.00;;;;;;;23.93;47.40;99388.34;1086746;47;20026;-79
2023/06/19 02:47:36;;;;;;;3.55;1.65;;;;;;;23.93;47.48;99396.53;1086671;54;20057;-79
2023/06/19 02:48:37;;;;;;;5.53;1.80;;;;;;;23.96;47.34;99389.78;1086638;47;20050;-80
2023/06/19 02:49:40;;;;;;;3.35;1.60;;;;;;;23.96;47.48;99395.22;1086603;54;20031;-80
2023/06/19 02:50:42;;;;;;;2.90;1.42;;;;;;;23.92;47.32;99397.59;1086732;46;20026;-81
2023/06/19 02:51:45;;;;;;;3.08;1.73;;;;;;;23.98;47.72;99404.00;1086775;47;20030;-82
2023/06/19 02:52:46;;;;;;;3.65;1.73;;;;;;;23.96;47.55;99406.97;1086894;46;20034;-81
2023/06/19 02:53:50;;;;;;;3.40;1.90;;;;;;;23.89;47.49;99406.28;1086686;47;20083;-78
2023/06/19 02:54:51;;;;;;;4.47;1.70;;;;;;;23.93;47.85;99412.06;1086790;54;20094;-81
2023/06/19 02:55:57;;;;;;;5.28;1.70;;;;;;;23.91;47.96;99408.75;1086785;54;20030;-82
2023/06/19 02:56:59;;;;;;;3.15;1.60;;;;;;;23.97;47.42;99416.00;1086768;47;20026;-81
2023/06/19 02:58:03;;;;;;;4.60;1.95;;;;;;;23.98;47.31;99409.47;1086740;47;20053;-80
2023/06/19 02:59:04;;;;;;;3.30;1.60;;;;;;;23.94;47.61;99411.88;1086783;47;20854;-80
2023/06/19 03:00:11;;;;;;;3.40;1.83;;;;;;;23.90;47.86;99407.94;1086707;47;20054;-83
2023/06/19 03:01:12;;;;;;;5.03;2.20;;;;;;;23.93;48.00;99401.16;1086683;46;20026;-78
2023/06/19 03:02:16;;;;;;;3.70;2.10;;;;;;;23.79;48.32;99417.03;1086607;47;20205;-81
2023/06/19 03:03:17;;;;;;;3.83;1.90;;;;;;;23.91;48.00;99412.31;1086759;54;20030;-79
2023/06/19 03:04:22;;;;;;;4.50;2.00;;;;;;;23.88;48.19;99412.00;1086657;54;20030;-81
2023/06/19 03:05:23;;;;;;;3.70;1.90;;;;;;;23.87;48.34;99413.88;1086234;47;20060;-81
2023/06/19 03:06:28;;;;;;;4.00;2.10;;;;;;;23.88;48.81;99418.25;1086625;47;20053;-81
2023/06/19 03:07:29;;;;;;;4.22;2.00;;;;;;;23.81;49.23;99428.53;1086573;54;20035;-83
2023/06/19 03:08:33;;;;;;;4.15;1.67;;;;;;;23.63;50.30;99419.50;1086650;46;20128;-84
2023/06/19 03:09:35;;;;;;;4.20;1.77;;;;;;;23.53;51.19;99420.13;1086757;47;20026;-83
2023/06/19 03:10:39;;;;;;;3.95;2.45;;;;;;;23.42;51.40;99425.66;1086737;47;20022;-84
2023/06/19 03:11:43;;;;;;;4.30;2.20;;;;;;;23.48;51.92;99430.97;1086708;47;20030;-82
2023/06/19 03:12:48;;;;;;;4.35;2.13;;;;;;;23.11;52.95;99428.63;1086682;54;20134;-84
2023/06/19 03:13:51;;;;;;;5.22;2.22;;;;;;;23.09;53.45;99438.09;1086852;47;20053;-84
2023/06/19 03:14:56;;;;;;;4.72;2.10;;;;;;;23.19;53.16;99439.16;1089784;39;20687;-82
2023/06/19 03:15:59;;;;;;;6.28;2.65;;;;;;;23.06;54.32;99436.66;1086803;46;20030;-84
2023/06/19 03:17:03;;;;;;;5.38;2.22;;;;;;;23.24;53.59;99438.44;1086694;54;20041;-80
2023/06/19 03:18:08;;;;;;;3.80;2.28;;;;;;;23.31;53.35;99432.84;1088568;39;20837;-83
2023/06/19 03:19:12;;;;;;;3.40;2.00;;;;;;;23.19;53.83;99438.34;1086759;47;20042;-78
2023/06/19 03:20:14;;;;;;;3.50;1.98;;;;;;;23.16;54.09;99428.69;1086716;47;20044;-83
2023/06/19 03:21:24;;;;;;;3.67;1.92;;;;;;;23.16;53.94;99434.16;1086649;47;20038;-80
2023/06/19 03:22:26;;;;;;;3.15;1.83;;;;;;;23.07;55.05;99438.34;1086631;47;20034;-85
2023/06/19 03:23:30;;;;;;;4.47;2.40;;;;;;;22.96;55.56;99447.38;1086739;46;20031;-81
2023/06/19 03:24:31;;;;;;;3.72;2.33;;;;;;;22.98;55.32;99439.78;1089073;39;21024;-81
2023/06/19 03:25:48;;;;;;;3.67;2.00;;;;;;;22.80;55.92;99449.78;1086698;47;20031;-82
2023/06/19 03:26:52;;;;;;;4.07;2.25;;;;;;;22.85;55.98;99452.63;1086656;47;20022;-79
2023/06/19 03:27:56;;;;;;;3.35;1.85;;;;;;;22.83;55.81;99464.81;1086605;47;20036;-82
2023/06/19 03:28:57;;;;;;;4.15;2.17;;;;;;;22.87;55.92;99455.91;1088118;39;20679;-79
2023/06/19 03:30:05;;;;;;;3.50;2.00;;;;;;;22.98;55.23;99456.97;1086792;47;20022;-80
2023/06/19 03:31:12;;;;;;;3.58;2.10;;;;;;;23.06;55.09;99447.56;1086800;47;20815;-80
2023/06/19 03:32:15;;;;;;;3.38;1.85;;;;;;;23.06;55.11;99455.75;1088075;39;20923;-82
2023/06/19 03:33:16;;;;;;;3.30;2.00;;;;;;;23.05;55.24;99454.09;1086611;47;20031;-81
2023/06/19 03:34:23;;;;;;;3.63;2.20;;;;;;;23.05;55.16;99459.53;1086625;47;20035;-82
2023/06/19 03:35:26;;;;;;;3.88;2.10;;;;;;;23.04;55.12;99463.38;1086816;47;20026;-80
2023/06/19 03:36:31;;;;;;;3.63;2.08;;;;;;;23.04;55.12;99468.81;1086639;47;20029;-82
2023/06/19 03:37:39;;;;;;;3.67;1.88;;;;;;;23.10;54.91;99467.00;1086584;47;20042;-79
2023/06/19 03:38:43;;;;;;;3.95;2.05;;;;;;;23.14;55.08;99465.44;1086640;47;20027;-78
2023/06/19 03:39:46;;;;;;;3.60;1.95;;;;;;;23.20;54.67;99468.06;1086581;47;20053;-78
2023/06/19 03:40:50;;;;;;;3.47;2.10;;;;;;;23.21;54.73;99471.63;1086600;47;20031;-81
2023/06/19 03:41:54;;;;;;;5.25;2.40;;;;;;;23.23;55.20;99474.94;1086921;47;20027;-81
2023/06/19 03:43:00;;;;;;;5.65;2.05;;;;;;;23.13;55.47;99481.00;1086927;47;21151;-80
2023/06/19 03:44:01;;;;;;;4.88;2.30;;;;;;;23.16;55.13;99488.66;1086647;47;20053;-82
2023/06/19 03:45:06;;;;;;;4.90;2.00;;;;;;;23.20;55.03;99489.88;1086594;47;20783;-79
2023/06/19 03:46:07;;;;;;;3.78;2.28;;;;;;;23.25;54.94;99496.50;1086346;46;20031;-79
2023/06/19 03:47:11;;;;;;;3.63;1.98;;;;;;;23.21;55.20;99499.72;1086872;47;20027;-79
2023/06/19 03:48:12;;;;;;;3.70;1.98;;;;;;;23.24;55.35;99492.13;1086547;47;20023;-78
2023/06/19 03:49:16;;;;;;;4.35;2.00;;;;;;;23.27;55.14;99492.47;1086563;47;20057;-79
2023/06/19 03:50:22;;;;;;;3.97;1.95;;;;;;;23.29;54.95;99497.69;1086631;47;20038;-80
2023/06/19 03:51:23;;;;;;;3.95;2.00;;;;;;;23.33;55.00;99501.59;1086722;54;20026;-81
2023/06/19 03:52:27;;;;;;;5.05;2.08;;;;;;;23.32;54.96;99494.47;1086848;54;20038;-82
2023/06/19 03:53:28;;;;;;;3.67;1.95;;;;;;;23.33;55.14;99505.13;1086851;54;20054;-82
2023/06/19 03:54:32;;;;;;;3.53;1.90;;;;;;;23.35;54.85;99504.88;1086815;54;20031;-80
2023/06/19 03:55:35;;;;;;;3.17;1.65;;;;;;;23.38;54.97;99507.13;1086955;47;20034;-79
2023/06/19 03:56:40;;;;;;;4.03;1.70;;;;;;;23.38;54.90;99501.69;1086676;47;20072;-80
2023/06/19 03:57:44;;;;;;;3.20;1.70;;;;;;;23.29;55.34;99508.59;1086610;54;20026;-80
2023/06/19 03:58:48;;;;;;;3.60;2.05;;;;;;;23.28;55.06;99509.66;1086789;47;20142;-81
2023/06/19 03:59:52;;;;;;;3.50;1.80;;;;;;;23.33;55.05;99498.88;1086763;47;20030;-79
2023/06/19 04:00:55;;;;;;;4.15;1.98;;;;;;;23.15;55.41;99495.19;1090183;39;21106;-83
2023/06/19 04:01:56;;;;;;;3.95;2.00;;;;;;;23.18;55.39;99504.81;1086663;47;20068;-81
2023/06/19 04:03:00;;;;;;;3.70;2.13;;;;;;;23.23;55.36;99501.38;1086708;47;20026;-83
2023/06/19 04:04:01;;;;;;;4.97;1.92;;;;;;;23.15;55.57;99500.63;1086998;47;20033;-82
2023/06/19 04:05:06;;;;;;;3.90;2.10;;;;;;;23.06;56.17;99499.34;1086961;47;20030;-82
2023/06/19 04:06:08;;;;;;;3.45;1.98;;;;;;;23.02;56.04;99500.94;1086398;54;20937;-82
2023/06/19 04:07:16;;;;;;;3.90;2.17;;;;;;;23.09;55.83;99498.88;1087403;39;20854;-81
2023/06/19 04:08:18;;;;;;;3.60;2.20;;;;;;;23.11;55.78;99499.47;1086878;46;20902;-81
2023/06/19 04:09:21;;;;;;;3.58;1.77;;;;;;;23.12;55.63;99506.59;1087028;47;20030;-82
2023/06/19 04:10:23;;;;;;;3.30;1.70;;;;;;;23.10;55.75;99505.16;1086896;47;20050;-81
2023/06/19 04:11:27;;;;;;;3.47;2.10;;;;;;;23.05;56.18;99506.72;1087330;39;20668;-81
2023/06/19 04:12:29;;;;;;;3.80;2.38;;;;;;;23.06;55.80;99502.09;1086943;46;20071;-82
2023/06/19 04:13:36;;;;;;;4.20;2.10;;;;;;;23.11;55.78;99496.75;1086832;47;20061;-81
2023/06/19 04:14:37;;;;;;;4.55;2.70;;;;;;;23.03;56.27;99502.59;1091173;31;20905;-82
2023/06/19 04:15:43;;;;;;;3.90;2.30;;;;;;;23.01;56.21;99500.09;1087020;54;20033;-83
2023/06/19 04:16:45;;;;;;;4.88;1.90;;;;;;;23.02;56.20;99512.66;1086834;54;20029;-81
2023/06/19 04:17:48;;;;;;;3.90;2.05;;;;;;;23.09;56.14;99504.34;1086786;54;20139;-81
2023/06/19 04:18:49;;;;;;;3.80;2.20;;;;;;;23.13;55.84;99510.97;1086925;47;20462;-82
2023/06/19 04:19:54;;;;;;;3.40;2.00;;;;;;;23.18;55.59;99508.38;1087427;39;20409;-81
2023/06/19 04:20:55;;;;;;;3.50;1.98;;;;;;;23.11;55.93;99515.84;1086852;47;20082;-81
2023/06/19 04:21:59;;;;;;;3.65;1.80;;;;;;;23.12;55.89;99516.66;1086917;47;20042;-81
2023/06/19 04:23:02;;;;;;;3.83;1.90;;;;;;;23.12;55.97;99520.22;1086882;47;20022;-81
2023/06/19 04:24:08;;;;;;;3.30;1.65;;;;;;;23.15;56.01;99525.19;1086731;47;20030;-81
2023/06/19 04:25:11;;;;;;;4.15;1.92;;;;;;;23.10;56.32;99516.91;1087004;47;20030;-81
2023/06/19 04:26:14;;;;;;;3.88;1.90;;;;;;;23.09;56.19;99522.59;1086852;47;20026;-80
2023/06/19 04:27:15;;;;;;;4.15;1.90;;;;;;;23.02;56.43;99518.09;1086873;47;20206;-81
2023/06/19 04:28:19;;;;;;;4.43;2.40;;;;;;;23.07;56.08;99514.66;1087005;54;20071;-79
2023/06/19 04:29:23;;;;;;;7.35;2.05;;;;;;;22.97;56.88;99528.06;1086845;47;20038;-80
2023/06/19 04:30:27;;;;;;;4.05;2.15;;;;;;;22.95;56.66;99528.31;1087012;54;20080;-81
2023/06/19 04:31:28;;;;;;;6.15;2.40;;;;;;;22.98;56.62;99527.00;1087120;54;20030;-80
2023/06/19 04:32:32;;;;;;;6.22;2.17;;;;;;;22.90;57.26;99529.03;1087110;54;20038;-80
2023/06/19 04:33:33;;;;;;;4.30;2.25;;;;;;;22.98;56.48;99529.72;1086978;47;20027;-81
2023/06/19 04:34:37;;;;;;;4.95;1.90;;;;;;;23.00;56.54;99524.84;1086949;46;20034;-81
2023/06/19 04:35:40;;;;;;;5.25;1.98;;;;;;;22.96;56.61;99531.84;1087043;54;20030;-82
2023/06/19 04:36:43;;;;;;;6.35;2.05;;;;;;;22.83;57.35;99522.88;1086976;47;20111;-81
2023/06/19 04:37:44;;;;;;;9.65;2.38;;;;;;;22.75;57.36;99529.50;1086926;54;20105;-82
2023/06/19 04:38:48;;;;;;;4.82;2.70;;;;;;;22.76;57.47;99530.34;1086961;54;20035;-84
2023/06/19 04:39:49;;;;;;;6.18;2.47;;;;;;;22.75;57.45;99525.97;1087008;47;20026;-82
2023/06/19 04:40:53;;;;;;;4.07;2.00;;;;;;;22.74;57.41;99533.28;1087339;39;20983;-83
2023/06/19 04:41:54;;;;;;;4.25;2.60;;;;;;;22.82;56.96;99534.84;1087036;47;20027;-83
2023/06/19 04:42:58;;;;;;;4.55;2.10;;;;;;;22.77;57.04;99542.88;1086829;54;20122;-82
2023/06/19 04:44:00;;;;;;;4.75;2.10;;;;;;;22.72;57.17;99542.78;1086891;54;20035;-79
2023/06/19 04:45:07;;;;;;;5.43;2.40;;;;;;;22.72;57.60;99540.88;1087012;47;20030;-80
2023/06/19 04:46:09;;;;;;;3.75;2.13;;;;;;;22.74;57.52;99541.47;1087097;54;20091;-83
2023/06/19 04:47:12;;;;;;;4.18;2.05;;;;;;;22.80;57.13;99547.88;1087055;54;20035;-81
2023/06/19 04:48:13;;;;;;;4.28;2.25;;;;;;;22.64;57.23;99559.47;1087021;54;20089;-85
2023/06/19 04:49:17;;;;;;;3.95;2.20;;;;;;;22.78;57.15;99544.53;1087038;47;20031;-83
2023/06/19 04:50:18;;;;;;;8.93;2.90;;;;;;;22.80;56.67;99553.31;1086994;54;20061;-81
2023/06/19 04:51:22;;;;;;;9.98;2.17;;;;;;;22.84;56.47;99549.06;1087108;54;20041;-82
2023/06/19 04:52:23;;;;;;;4.57;1.95;;;;;;;22.89;56.35;99549.16;1087429;39;20281;-80
2023/06/19 04:53:27;;;;;;;7.22;2.17;;;;;;;22.82;56.51;99545.72;1087069;47;20042;-82
2023/06/19 04:54:28;;;;;;;4.10;1.90;;;;;;;22.82;56.58;99550.34;1087063;54;20030;-80
2023/06/19 04:56:48;;;;;;;4.20;1.90;;;;;;;22.82;56.58;99553.91;1088020;39;20662;-80
2023/06/19 04:57:52;;;;;;;4.18;2.17;;;;;;;22.87;56.20;99558.66;1086954;54;20038;-82
2023/06/19 04:58:56;;;;;;;7.90;2.30;;;;;;;22.92;56.02;99557.94;1087123;46;20095;-84
2023/06/19 04:59:57;;;;;;;5.43;2.60;;;;;;;22.97;55.79;99556.16;1086919;52;20055;-85
2023/06/19 05:01:04;;;;;;;5.65;2.20;;;;;;;22.97;56.17;99560.75;1087078;54;20104;-84
2023/06/19 05:02:07;;;;;;;3.80;1.85;;;;;;;22.97;55.68;99558.88;1087139;54;20054;-83
2023/06/19 05:03:13;;;;;;;3.33;1.60;;;;;;;23.00;55.88;99552.13;1086994;46;20030;-82